Time;durP1;ratioP1;P1;durP2;ratioP2;P2;SDS_P1;SDS_P2;PMS_P1;PMS_P2;Temp;Humidity;BMP_temperature;BMP_pressure;BME280_temperature;BME280_humidity;BME280_pressure;Samples;Min_cycle;Max_cycle;Signal;HPM_P1;HPM_P2
2022/01/14 00:02:18;;;;;;;2.13;2.03;;;;;;;2.66;84.39;99886.41;1631601;84;20992;-61
2022/01/14 00:04:44;;;;;;;2.10;1.90;;;;;;;2.65;84.47;99875.03;1659098;85;21103;-60
2022/01/14 00:07:11;;;;;;;2.17;2.08;;;;;;;2.66;84.47;99879.84;1659298;85;21064;-60
2022/01/14 00:09:39;;;;;;;2.17;2.07;;;;;;;2.65;84.27;99885.56;1658940;85;21217;-62
2022/01/14 00:12:15;;;;;;;2.83;2.67;;;;;;;2.64;84.44;99875.21;1616685;87;21061;-61
2022/01/14 00:17:09;;;;;;;2.47;2.27;;;;;;;2.68;84.53;99863.41;1634023;85;21556;-61
2022/01/14 00:19:37;;;;;;;2.90;2.70;;;;;;;2.73;84.52;99875.61;1652428;85;21103;-61
2022/01/14 00:22:10;;;;;;;2.43;1.67;;;;;;;2.74;84.18;99868.06;1649235;85;21115;-62
2022/01/14 00:33:05;;;;;;;2.95;2.70;;;;;;;2.73;84.27;99840.92;1632390;85;21046;-62
2022/01/14 00:35:29;;;;;;;3.40;2.37;;;;;;;2.76;84.08;99859.53;1648018;86;22307;-62
2022/01/14 00:37:56;;;;;;;3.40;2.52;;;;;;;2.73;84.07;99844.88;1643238;86;21024;-62
2022/01/14 00:40:22;;;;;;;2.87;1.90;;;;;;;2.72;84.03;99841.89;1641206;86;21115;-61
2022/01/14 00:42:50;;;;;;;3.42;2.58;;;;;;;2.76;84.20;99840.28;1646871;85;21059;-64
2022/01/14 00:45:16;;;;;;;3.77;2.60;;;;;;;2.76;83.94;99849.00;1655130;85;21071;-63
2022/01/14 00:47:44;;;;;;;5.37;3.47;;;;;;;2.78;84.05;99843.59;1671438;84;21043;-62
2022/01/14 00:50:14;;;;;;;3.00;1.97;;;;;;;2.82;84.15;99850.20;1668006;84;21614;-62
2022/01/14 00:52:42;;;;;;;2.60;2.40;;;;;;;2.83;84.03;99836.90;1665275;84;22587;-61
2022/01/14 00:55:14;;;;;;;3.83;2.10;;;;;;;2.88;84.06;99832.02;1656556;85;21050;-61
2022/01/14 01:00:31;;;;;;;2.50;2.03;;;;;;;2.86;83.46;99819.50;1685399;83;21016;-61
2022/01/14 01:02:59;;;;;;;3.27;2.30;;;;;;;2.81;83.50;99816.48;1675901;84;21562;-67
2022/01/14 01:05:25;;;;;;;1.77;1.67;;;;;;;2.81;83.74;99813.03;1679240;84;21061;-63
2022/01/14 01:08:03;;;;;;;2.08;1.60;;;;;;;2.83;83.68;99812.39;1680040;84;21067;-61
2022/01/14 01:10:20;;;;;;;4.07;2.50;;;;;;;2.85;83.69;99801.22;1671768;84;21150;-62
2022/01/14 01:15:15;;;;;;;2.27;2.12;;;;;;;2.85;83.45;99784.92;1685463;84;21008;-61
2022/01/14 01:17:43;;;;;;;2.23;1.90;;;;;;;2.89;83.60;99780.19;1681989;84;21082;-60
2022/01/14 01:20:13;;;;;;;2.13;1.80;;;;;;;2.91;83.40;99767.70;1679065;84;21469;-61
2022/01/14 01:22:40;;;;;;;2.10;1.77;;;;;;;2.92;83.34;99755.70;1681817;84;21059;-61
2022/01/14 01:25:11;;;;;;;3.67;1.93;;;;;;;2.92;83.17;99750.44;1702883;83;21043;-61
2022/01/14 01:27:40;;;;;;;2.00;1.57;;;;;;;2.90;83.41;99748.45;1699568;83;21033;-63
2022/01/14 01:30:14;;;;;;;2.50;2.30;;;;;;;2.92;83.40;99741.23;1703390;83;21068;-62
2022/01/14 01:32:39;;;;;;;1.70;1.60;;;;;;;2.95;83.47;99748.48;1707234;84;21345;-63
2022/01/14 01:35:07;;;;;;;1.75;1.35;;;;;;;2.97;83.46;99749.15;1714641;83;20979;-62
2022/01/14 01:37:33;;;;;;;1.73;1.63;;;;;;;2.92;83.30;99724.11;1717268;83;21463;-60
2022/01/14 01:39:59;;;;;;;1.60;1.20;;;;;;;3.02;83.28;99723.19;1713410;83;21105;-67
2022/01/14 01:42:29;;;;;;;2.33;1.30;;;;;;;3.06;83.33;99716.63;1708142;83;21550;-61
2022/01/14 01:44:54;;;;;;;3.00;2.47;;;;;;;3.08;83.04;99697.05;1702130;82;21462;-60
2022/01/14 01:47:22;;;;;;;6.60;5.72;;;;;;;3.08;83.03;99684.38;1681663;83;20993;-62
2022/01/14 01:49:48;;;;;;;6.73;6.03;;;;;;;3.10;83.07;99671.89;1683555;83;21546;-61
2022/01/14 01:52:15;;;;;;;6.58;4.40;;;;;;;3.09;82.94;99656.59;1688244;83;21065;-62
2022/01/14 01:54:41;;;;;;;3.10;2.90;;;;;;;3.11;83.07;99659.06;1686215;83;21089;-61
2022/01/14 01:57:07;;;;;;;2.50;2.08;;;;;;;3.11;83.07;99654.62;1690027;83;21031;-61
2022/01/14 01:59:34;;;;;;;2.77;2.47;;;;;;;3.13;83.07;99645.25;1693115;83;21078;-62
2022/01/14 02:02:02;;;;;;;4.17;2.90;;;;;;;3.12;82.81;99639.63;1679409;83;21081;-61
2022/01/14 02:04:29;;;;;;;2.57;2.37;;;;;;;3.15;82.98;99642.47;1683416;83;21004;-61
2022/01/14 02:06:57;;;;;;;3.03;2.17;;;;;;;3.15;82.93;99619.58;1688818;83;21014;-61
2022/01/14 02:09:24;;;;;;;1.90;1.77;;;;;;;3.18;83.02;99620.56;1687952;83;21101;-63
2022/01/14 02:11:51;;;;;;;2.07;1.53;;;;;;;3.18;82.51;99630.28;1686654;82;21050;-60
2022/01/14 02:19:31;;;;;;;1.92;1.20;;;;;;;3.19;82.81;99645.93;1682669;83;21090;-62
2022/01/14 02:22:12;;;;;;;2.80;1.23;;;;;;;3.21;82.88;99642.64;1682858;84;21155;-61
2022/01/14 02:27:12;;;;;;;1.27;1.13;;;;;;;3.25;82.51;99640.52;1684971;83;21068;-62
2022/01/14 02:29:39;;;;;;;0.70;0.70;;;;;;;3.25;82.42;99637.39;1686867;83;21081;-60
2022/01/14 02:32:07;;;;;;;1.73;1.63;;;;;;;3.24;82.22;99640.17;1683508;83;21003;-61
2022/01/14 02:34:36;;;;;;;1.67;0.73;;;;;;;3.25;82.47;99627.36;1675122;84;21518;-60
2022/01/14 02:37:05;;;;;;;1.20;1.10;;;;;;;3.22;82.05;99620.61;1679829;84;21062;-61
2022/01/14 02:39:31;;;;;;;1.77;1.67;;;;;;;3.18;82.15;99623.20;1675906;84;21056;-60
2022/01/14 02:41:58;;;;;;;1.17;1.05;;;;;;;3.09;82.40;99608.38;1671768;84;21174;-60
2022/01/14 02:44:27;;;;;;;1.63;0.70;;;;;;;2.96;82.54;99582.47;1659451;83;21705;-60
2022/01/14 02:47:04;;;;;;;2.17;1.27;;;;;;;3.04;82.89;99604.06;1717518;82;21555;-60
2022/01/14 02:49:29;;;;;;;1.47;1.37;;;;;;;3.07;83.08;99607.67;1716831;83;21516;-61
2022/01/14 02:51:58;;;;;;;2.13;1.83;;;;;;;3.10;83.12;99606.88;1715037;82;21024;-61
2022/01/14 02:54:33;;;;;;;1.40;1.40;;;;;;;3.15;83.26;99589.30;1710243;82;21076;-63
2022/01/14 02:57:02;;;;;;;1.50;1.00;;;;;;;3.19;83.17;99584.04;1713518;82;20974;-61
2022/01/14 02:59:29;;;;;;;1.30;1.20;;;;;;;3.23;82.94;99577.47;1725839;82;21034;-61
2022/01/14 03:01:57;;;;;;;1.37;1.27;;;;;;;3.25;83.08;99576.81;1689824;83;21046;-62
2022/01/14 03:04:24;;;;;;;2.07;1.27;;;;;;;3.26;82.92;99577.16;1684304;84;20995;-60
2022/01/14 03:06:50;;;;;;;2.27;2.00;;;;;;;3.28;83.11;99562.02;1683491;84;21162;-62
2022/01/14 03:09:17;;;;;;;2.17;1.50;;;;;;;3.30;83.04;99560.05;1673432;84;21022;-61
2022/01/14 03:11:53;;;;;;;1.67;1.50;;;;;;;3.37;83.10;99558.08;1673305;83;21519;-62
2022/01/14 03:14:23;;;;;;;1.67;1.57;;;;;;;3.40;82.65;99555.13;1688366;83;21010;-60
2022/01/14 03:16:49;;;;;;;2.30;1.50;;;;;;;3.37;82.62;99554.13;1676520;83;21756;-62
2022/01/14 03:19:24;;;;;;;1.80;1.63;;;;;;;3.36;82.66;99549.36;1666512;83;21102;-62
2022/01/14 03:21:52;;;;;;;2.03;1.27;;;;;;;3.31;82.69;99543.27;1686220;83;21606;-61
2022/01/14 03:25:36;;;;;;;2.33;1.83;;;;;;;3.26;82.88;99531.06;1680264;83;21080;-60
2022/01/14 03:26:52;;;;;;;1.83;1.40;;;;;;;3.25;83.17;99516.73;1692471;83;21201;-62
2022/01/14 03:29:19;;;;;;;2.53;1.60;;;;;;;3.27;83.37;99522.66;1691349;83;21184;-64
2022/01/14 03:31:47;;;;;;;0.97;0.83;;;;;;;3.29;83.42;99521.50;1692253;83;21059;-61
2022/01/14 03:34:14;;;;;;;1.50;0.87;;;;;;;3.29;83.49;99514.92;1692233;83;21003;-61
2022/01/14 03:36:41;;;;;;;;;;;;;;;3.30;83.54;99488.92;1694684;83;21031;-61
2022/01/14 03:39:07;;;;;;;2.10;1.43;;;;;;;3.29;83.46;99500.44;1693683;83;20176;-61
2022/01/14 03:41:33;;;;;;;2.98;2.05;;;;;;;3.22;83.71;99492.88;1689421;83;21040;-59
2022/01/14 03:43:59;;;;;;;1.62;1.52;;;;;;;3.20;83.95;99476.41;1691724;83;21054;-61
2022/01/14 03:46:26;;;;;;;1.52;1.40;;;;;;;3.20;83.90;99466.34;1673076;82;21538;-60
2022/01/14 03:48:53;;;;;;;1.72;1.62;;;;;;;3.14;84.17;99459.10;1689200;83;21090;-61
2022/01/14 03:51:20;;;;;;;1.87;1.22;;;;;;;3.10;84.32;99440.16;1679829;83;21034;-60
2022/01/14 03:53:48;;;;;;;2.03;1.50;;;;;;;3.08;84.68;99432.92;1683604;83;21017;-60
2022/01/14 03:56:16;;;;;;;2.03;1.73;;;;;;;3.11;84.81;99437.87;1671352;83;20996;-61
2022/01/14 03:58:42;;;;;;;1.20;1.17;;;;;;;3.15;84.86;99432.61;1676692;83;21125;-62
2022/01/14 04:01:11;;;;;;;1.82;1.70;;;;;;;3.17;84.78;99434.59;1681027;83;21057;-62
2022/01/14 04:03:39;;;;;;;1.00;1.00;;;;;;;3.18;84.75;99430.95;1669952;84;21060;-60
2022/01/14 04:06:07;;;;;;;1.77;1.67;;;;;;;3.14;84.71;99427.50;1670662;84;21061;-60
2022/01/14 04:08:34;;;;;;;1.83;0.93;;;;;;;3.06;84.82;99422.55;1670850;84;21042;-60
2022/01/14 04:11:02;;;;;;;1.30;1.20;;;;;;;3.04;84.83;99432.42;1669769;84;21007;-60
2022/01/14 04:13:46;;;;;;;1.23;1.13;;;;;;;3.03;85.10;99424.68;1673864;84;21018;-60
2022/01/14 04:16:07;;;;;;;1.53;1.17;;;;;;;3.08;85.33;99423.20;1643359;84;21026;-60
2022/01/14 04:18:35;;;;;;;2.57;1.57;;;;;;;3.16;85.28;99418.94;1673599;84;21054;-61
2022/01/14 04:21:01;;;;;;;1.67;1.07;;;;;;;3.20;85.02;99407.94;1664553;84;21542;-60
2022/01/14 04:23:28;;;;;;;1.12;1.05;;;;;;;3.24;84.91;99407.09;1664427;84;21097;-64
2022/01/14 04:25:56;;;;;;;1.15;1.15;;;;;;;3.25;84.65;99406.94;1620864;87;21171;-61
2022/01/14 04:28:26;;;;;;;1.43;1.00;;;;;;;3.28;84.72;99397.40;1644365;86;21055;-62
2022/01/14 04:30:54;;;;;;;1.73;1.00;;;;;;;3.34;84.59;99401.69;1641472;85;21086;-60
2022/01/14 04:33:23;;;;;;;1.70;1.37;;;;;;;3.38;84.45;99393.28;1644798;85;21110;-62
2022/01/14 04:35:50;;;;;;;1.77;1.47;;;;;;;3.42;84.28;99397.22;1657560;85;21050;-59
2022/01/14 04:38:17;;;;;;;1.97;1.37;;;;;;;3.46;84.30;99389.81;1661483;85;20995;-61
2022/01/14 04:40:43;;;;;;;5.00;1.98;;;;;;;3.51;84.20;99392.78;1662744;85;21121;-60
2022/01/14 04:43:09;;;;;;;1.52;1.42;;;;;;;3.52;83.82;99390.46;1662566;85;21494;-62
2022/01/14 04:48:06;;;;;;;1.55;1.45;;;;;;;3.46;83.99;99389.81;1676518;84;21286;-63
2022/01/14 04:50:34;;;;;;;1.63;1.53;;;;;;;2.93;84.11;99301.92;1712124;82;21077;-60
2022/01/14 04:53:00;;;;;;;1.92;1.40;;;;;;;3.44;84.18;99374.67;1720514;82;22269;-60
2022/01/14 04:55:28;;;;;;;1.60;1.27;;;;;;;3.41;84.09;99375.83;1711932;82;21074;-61
2022/01/14 04:57:56;;;;;;;2.63;2.10;;;;;;;3.40;84.31;99370.72;1689909;83;20955;-64
2022/01/14 05:00:25;;;;;;;4.80;1.90;;;;;;;3.03;84.39;99302.26;1693020;82;21107;-63
2022/01/14 05:02:54;;;;;;;1.20;1.10;;;;;;;3.41;84.43;99365.30;1729173;82;20962;-63
2022/01/14 05:05:25;;;;;;;2.50;1.37;;;;;;;3.40;84.63;99375.99;1733618;82;21094;-61
2022/01/14 05:07:52;;;;;;;3.33;2.27;;;;;;;3.41;84.67;99355.23;1730502;81;21375;-61
2022/01/14 05:12:47;;;;;;;1.63;1.53;;;;;;;3.41;84.78;99358.71;1713579;82;21918;-61
2022/01/14 05:15:16;;;;;;;2.03;1.63;;;;;;;3.45;84.85;99350.80;1708845;83;20951;-62
2022/01/14 05:17:43;;;;;;;3.23;1.90;;;;;;;3.46;84.73;99344.52;1709610;83;21027;-60
2022/01/14 05:20:11;;;;;;;3.97;2.13;;;;;;;3.46;84.80;99329.22;1699308;83;21007;-60
2022/01/14 05:22:37;;;;;;;2.10;1.77;;;;;;;3.45;84.73;99318.38;1700368;83;21621;-63
2022/01/14 05:25:06;;;;;;;2.15;1.55;;;;;;;3.44;84.86;99325.42;1676388;84;21045;-61
2022/01/14 05:27:35;;;;;;;3.40;2.30;;;;;;;3.45;84.95;99320.50;1684250;85;21062;-62
2022/01/14 05:30:05;;;;;;;3.63;2.57;;;;;;;3.48;84.99;99307.48;1681540;84;21138;-61
2022/01/14 05:32:31;;;;;;;3.60;2.97;;;;;;;3.49;84.76;99306.50;1678943;84;21033;-61
2022/01/14 05:34:57;;;;;;;2.67;2.12;;;;;;;3.42;84.90;99279.98;1670018;84;21328;-64
2022/01/14 05:37:23;;;;;;;1.90;1.80;;;;;;;3.42;85.18;99289.72;1667889;84;21053;-61
2022/01/14 05:39:49;;;;;;;1.90;1.80;;;;;;;3.43;85.37;99282.97;1665642;84;22123;-62
2022/01/14 05:42:17;;;;;;;1.50;1.40;;;;;;;3.46;85.24;99268.63;1663226;84;21495;-61
2022/01/14 05:44:43;;;;;;;2.10;1.90;;;;;;;3.46;84.99;99273.89;1667752;84;21078;-60
2022/01/14 05:47:09;;;;;;;1.92;1.62;;;;;;;3.47;85.28;99267.65;1669307;84;21046;-62
2022/01/14 05:49:36;;;;;;;3.20;2.08;;;;;;;3.47;85.28;99267.65;1671919;84;21515;-59
2022/01/14 05:52:02;;;;;;;3.33;2.80;;;;;;;3.50;85.16;99267.29;1685849;84;21045;-63
2022/01/14 05:54:28;;;;;;;2.80;2.58;;;;;;;3.50;84.82;99275.20;1681415;84;21154;-63
2022/01/14 05:56:55;;;;;;;2.40;2.20;;;;;;;3.49;84.87;99270.43;1675309;84;21030;-61
2022/01/14 05:59:21;;;;;;;3.20;2.90;;;;;;;3.48;85.02;99266.64;1688166;84;21055;-60
2022/01/14 06:01:47;;;;;;;3.98;3.67;;;;;;;3.50;85.05;99257.59;1683935;84;21024;-61
2022/01/14 06:04:13;;;;;;;5.05;3.65;;;;;;;3.54;85.14;99273.86;1684453;84;21139;-63
2022/01/14 06:06:40;;;;;;;4.53;4.12;;;;;;;3.52;84.68;99262.67;1689850;84;21076;-63
2022/01/14 06:09:06;;;;;;;4.10;3.72;;;;;;;3.48;84.68;99251.67;1682687;84;21028;-63
2022/01/14 06:11:33;;;;;;;8.57;3.60;;;;;;;3.48;84.87;99253.47;1640856;86;20989;-63
2022/01/14 06:13:59;;;;;;;;;;;;;;;3.44;84.85;99244.27;1681429;84;21064;-63
2022/01/14 06:16:25;;;;;;;4.70;4.30;;;;;;;3.45;84.80;99244.10;1677426;84;20156;-64
2022/01/14 06:18:51;;;;;;;6.60;4.22;;;;;;;3.44;85.02;99243.76;1686054;84;21125;-64
2022/01/14 06:21:17;;;;;;;7.00;6.17;;;;;;;3.48;85.05;99239.82;1682358;84;21145;-63
2022/01/14 06:23:43;;;;;;;7.00;5.65;;;;;;;3.55;84.92;99239.95;1679242;84;21461;-61
2022/01/14 06:26:09;;;;;;;5.53;4.95;;;;;;;3.59;84.64;99241.25;1704372;84;21378;-64
2022/01/14 06:28:36;;;;;;;6.35;5.05;;;;;;;3.65;84.57;99231.84;1683789;83;21046;-63
2022/01/14 06:31:02;;;;;;;7.40;5.28;;;;;;;3.70;84.40;99220.30;1686436;84;21569;-63
2022/01/14 06:33:28;;;;;;;9.45;4.92;;;;;;;3.77;84.11;99216.46;1684754;84;21067;-63
2022/01/14 06:35:54;;;;;;;7.90;4.83;;;;;;;3.81;83.90;99211.20;1683267;84;21036;-64
2022/01/14 06:38:20;;;;;;;9.75;6.47;;;;;;;3.84;83.71;99210.83;1683404;84;21621;-65
2022/01/14 06:40:47;;;;;;;7.50;5.95;;;;;;;3.90;83.33;99202.26;1684164;84;20961;-65
2022/01/14 06:43:14;;;;;;;;;;;;;;;3.89;82.76;99184.28;1696827;83;21532;-64
2022/01/14 06:45:41;;;;;;;7.60;6.33;;;;;;;3.88;82.72;99189.72;1687458;83;20144;-64
2022/01/14 06:48:07;;;;;;;;;;;;;;;3.82;82.62;99171.97;1679884;84;21242;-65
2022/01/14 06:50:34;;;;;;;6.62;5.83;;;;;;;3.79;82.61;99158.65;1681265;84;20159;-65
2022/01/14 06:53:03;;;;;;;9.08;6.72;;;;;;;3.76;82.64;99149.76;1662126;85;21098;-67
2022/01/14 06:55:30;;;;;;;11.47;6.43;;;;;;;3.79;82.80;99157.83;1685390;84;20992;-64
2022/01/14 06:57:56;;;;;;;9.18;6.22;;;;;;;3.85;82.49;99154.50;1680295;84;20989;-63
2022/01/14 07:00:23;;;;;;;7.33;5.97;;;;;;;3.85;81.90;99119.72;1676891;84;21005;-66
2022/01/14 07:02:50;;;;;;;9.83;7.07;;;;;;;3.87;82.06;99120.88;1679982;84;21141;-65
2022/01/14 07:05:17;;;;;;;9.57;5.63;;;;;;;3.87;81.65;99112.96;1682746;84;21050;-62
2022/01/14 07:07:43;;;;;;;7.05;5.80;;;;;;;3.88;81.41;99101.41;1676070;84;21010;-65
2022/01/14 07:10:12;;;;;;;9.03;5.77;;;;;;;3.89;81.49;99119.69;1677290;84;21173;-64
2022/01/14 07:12:41;;;;;;;;;;;;;;;3.90;81.55;99106.03;1676439;84;21046;-65
2022/01/14 07:15:14;;;;;;;13.00;6.47;;;;;;;3.95;81.52;99110.77;1678927;84;20182;-67
2022/01/14 07:17:42;;;;;;;8.23;5.53;;;;;;;3.95;81.41;99119.99;1673597;84;21027;-66
2022/01/14 07:20:12;;;;;;;6.73;5.50;;;;;;;3.61;80.65;99066.66;1685490;84;21578;-67
2022/01/14 07:22:44;;;;;;;6.93;5.57;;;;;;;3.96;80.70;99093.97;1674984;84;21058;-65
2022/01/14 07:25:10;;;;;;;7.27;5.30;;;;;;;4.00;80.85;99107.92;1678912;84;21053;-66
2022/01/14 07:27:37;;;;;;;;;;;;;;;4.06;80.69;99094.53;1676484;84;21577;-65
2022/01/14 07:30:08;;;;;;;8.97;6.10;;;;;;;4.09;80.42;99087.09;1684716;84;20206;-66
2022/01/14 07:32:34;;;;;;;7.93;5.50;;;;;;;4.02;79.78;99067.70;1683520;84;21070;-64
2022/01/14 07:35:02;;;;;;;5.40;4.85;;;;;;;4.02;79.95;99074.80;1674045;83;21077;-65
2022/01/14 07:37:30;;;;;;;9.27;7.23;;;;;;;4.04;79.82;99087.30;1682969;84;21514;-64
2022/01/14 07:39:56;;;;;;;14.93;7.17;;;;;;;4.03;79.45;99074.62;1683979;84;21126;-63
2022/01/14 07:42:22;;;;;;;10.28;5.58;;;;;;;3.98;79.69;99076.15;1685183;84;21565;-64
2022/01/14 07:44:48;;;;;;;8.75;5.50;;;;;;;3.99;79.72;99077.77;1685757;84;21098;-64
2022/01/14 07:47:15;;;;;;;5.77;4.80;;;;;;;4.02;79.49;99078.24;1697136;84;21121;-67
2022/01/14 07:49:42;;;;;;;11.73;6.25;;;;;;;4.07;78.86;99069.31;1693835;84;21019;-63
2022/01/14 07:52:08;;;;;;;11.40;5.70;;;;;;;4.07;78.86;99069.31;1675135;84;21161;-62
2022/01/14 07:54:36;;;;;;;10.57;5.90;;;;;;;4.08;78.99;99066.98;1677228;84;21499;-63
2022/01/14 07:57:04;;;;;;;7.87;5.33;;;;;;;4.13;78.92;99063.02;1684737;84;20994;-63
2022/01/14 07:59:33;;;;;;;8.83;5.87;;;;;;;4.15;78.53;99016.19;1684615;84;21011;-65
2022/01/14 08:02:00;;;;;;;6.07;3.97;;;;;;;4.16;78.19;99051.58;1703414;82;21061;-64
2022/01/14 08:04:27;;;;;;;6.20;4.47;;;;;;;4.17;78.00;99044.52;1709152;82;21042;-64
2022/01/14 08:06:57;;;;;;;;;;;;;;;4.18;77.45;99025.03;1714480;82;21023;-65
2022/01/14 08:09:22;;;;;;;9.40;5.83;;;;;;;4.19;77.33;99018.78;1712015;83;20452;-64
2022/01/14 08:11:50;;;;;;;9.60;5.90;;;;;;;4.16;77.53;99005.94;1702692;82;20994;-65
2022/01/14 08:14:17;;;;;;;6.83;5.13;;;;;;;4.19;77.52;98995.85;1685719;84;22178;-63
2022/01/14 08:16:43;;;;;;;5.22;4.62;;;;;;;4.25;77.57;98996.95;1684797;84;21621;-63
2022/01/14 08:19:10;;;;;;;5.35;4.40;;;;;;;4.31;77.33;98967.71;1676216;84;21569;-63
2022/01/14 08:21:36;;;;;;;4.60;3.57;;;;;;;4.36;76.37;98971.95;1681848;84;21053;-72
2022/01/14 08:24:04;;;;;;;5.78;3.90;;;;;;;4.37;76.21;98933.52;1656953;85;21542;-63
2022/01/14 08:26:31;;;;;;;5.33;4.13;;;;;;;4.36;76.27;98951.66;1681313;84;21137;-66
2022/01/14 08:28:57;;;;;;;13.28;5.58;;;;;;;4.38;76.23;98961.52;1676302;84;21070;-66
2022/01/14 08:31:24;;;;;;;6.65;4.25;;;;;;;4.44;76.10;98959.47;1681577;85;21661;-65
2022/01/14 08:33:50;;;;;;;5.60;4.33;;;;;;;4.50;75.81;98953.96;1674458;84;22020;-65
2022/01/14 08:36:16;;;;;;;6.08;4.05;;;;;;;4.55;75.34;98958.20;1692247;84;21047;-64
2022/01/14 08:38:42;;;;;;;3.25;2.95;;;;;;;4.59;74.80;98951.55;1695865;83;21067;-64
2022/01/14 08:41:08;;;;;;;;;;;;;;;4.63;74.72;98940.13;1687780;84;21037;-65
2022/01/14 08:43:35;;;;;;;2.53;2.33;;;;;;;4.67;74.64;98945.34;1689737;83;20138;-64
2022/01/14 08:46:02;;;;;;;3.95;2.67;;;;;;;4.66;74.27;98943.73;1674200;82;21014;-64
2022/01/14 08:48:30;;;;;;;2.97;2.43;;;;;;;4.68;74.22;98924.05;1666864;84;21027;-65
2022/01/14 08:50:57;;;;;;;3.07;2.13;;;;;;;4.67;73.61;98926.87;1672295;85;21065;-64
2022/01/14 08:53:24;;;;;;;5.73;2.67;;;;;;;4.64;73.45;98912.23;1674539;84;21108;-62
2022/01/14 08:55:50;;;;;;;3.27;2.45;;;;;;;4.66;73.81;98921.30;1686415;82;21032;-63
2022/01/14 08:58:16;;;;;;;3.25;2.60;;;;;;;4.69;73.84;98923.58;1700614;82;21020;-63
2022/01/14 09:00:43;;;;;;;4.28;2.58;;;;;;;4.74;73.80;98913.26;1705075;82;21042;-63
2022/01/14 09:03:09;;;;;;;;;;;;;;;4.81;73.50;98929.19;1685619;84;21026;-63
2022/01/14 09:05:36;;;;;;;7.00;2.77;;;;;;;4.80;72.89;98928.86;1686306;84;20130;-64
2022/01/14 09:08:03;;;;;;;4.50;2.70;;;;;;;4.74;73.39;98922.49;1684369;84;21074;-64
2022/01/14 09:10:29;;;;;;;2.53;2.33;;;;;;;4.74;73.29;98908.48;1686262;84;21023;-69
2022/01/14 09:12:55;;;;;;;3.37;2.87;;;;;;;4.78;73.28;98905.27;1679034;84;21023;-71
2022/01/14 09:15:22;;;;;;;3.25;2.05;;;;;;;4.85;73.08;98910.64;1686342;84;21079;-71
2022/01/14 09:17:48;;;;;;;;;;;;;;;4.92;72.64;98902.30;1686156;84;21031;-72
2022/01/14 09:20:15;;;;;;;3.57;2.57;;;;;;;4.97;72.52;98898.60;1682017;84;20643;-74
2022/01/14 09:22:56;;;;;;;4.03;3.27;;;;;;;4.89;72.57;98903.98;1691419;83;21554;-70
2022/01/14 09:25:11;;;;;;;3.23;2.83;;;;;;;4.87;72.76;98895.44;1671730;84;21072;-76
2022/01/14 09:27:38;;;;;;;5.03;3.12;;;;;;;4.86;72.68;98901.73;1684737;84;21127;-74
2022/01/14 09:30:06;;;;;;;2.70;2.20;;;;;;;4.86;72.65;98914.42;1672511;84;21568;-74
2022/01/14 09:32:34;;;;;;;3.70;2.70;;;;;;;4.91;72.64;98885.31;1681718;84;21023;-72
2022/01/14 09:35:03;;;;;;;3.52;2.98;;;;;;;4.96;72.25;98848.61;1684046;84;21482;-71
2022/01/14 09:37:30;;;;;;;4.00;3.00;;;;;;;4.94;72.06;98871.75;1658664;85;21079;-72
2022/01/14 09:39:56;;;;;;;2.80;2.40;;;;;;;4.90;72.18;98868.67;1684415;84;20972;-72
2022/01/14 09:42:22;;;;;;;3.33;3.02;;;;;;;4.86;72.47;98862.13;1684423;84;21058;-70
2022/01/14 09:44:48;;;;;;;2.98;2.15;;;;;;;4.85;72.62;98840.17;1687318;83;21039;-70
2022/01/14 09:47:19;;;;;;;4.70;3.08;;;;;;;4.84;72.44;98832.44;1684266;84;21558;-75
2022/01/14 09:49:46;;;;;;;2.40;2.03;;;;;;;4.84;72.48;98827.99;1692764;84;21027;-71
2022/01/14 09:52:16;;;;;;;;;;;;;;;4.87;72.49;98842.63;1692752;84;21034;-70
2022/01/14 09:54:44;;;;;;;2.70;2.37;;;;;;;4.88;72.38;98822.64;1690556;84;20212;-71
2022/01/14 09:57:12;;;;;;;3.50;3.07;;;;;;;4.85;72.39;98818.24;1688009;82;21092;-71
2022/01/14 09:59:39;;;;;;;4.63;4.20;;;;;;;4.85;72.53;98814.28;1697823;82;21096;-72
2022/01/14 10:02:06;;;;;;;3.35;3.05;;;;;;;4.83;72.54;98777.50;1701082;82;20991;-71
2022/01/14 10:04:32;;;;;;;;;;;;;;;4.83;72.70;98795.98;1701143;82;21551;-70
2022/01/14 10:07:00;;;;;;;2.57;2.37;;;;;;;4.85;72.74;98785.23;1709580;82;20117;-74
2022/01/14 10:09:35;;;;;;;3.57;3.27;;;;;;;4.79;72.82;98776.77;1675403;84;21084;-72
2022/01/14 10:12:17;;;;;;;5.87;4.20;;;;;;;4.80;72.88;98775.73;1650751;84;21005;-72
2022/01/14 10:14:57;;;;;;;4.57;4.03;;;;;;;4.77;73.10;98780.91;1649470;85;21052;-70
2022/01/14 10:17:25;;;;;;;3.70;3.40;;;;;;;4.75;73.13;98751.75;1647193;86;21090;-70
2022/01/14 10:19:52;;;;;;;3.10;2.80;;;;;;;4.79;73.17;98734.53;1645569;85;21517;-71
2022/01/14 10:22:24;;;;;;;;;;;;;;;4.81;73.36;98743.87;1709968;82;21057;-71
2022/01/14 10:24:58;;;;;;;3.80;3.30;;;;;;;4.84;73.24;98726.34;1674761;84;20155;-70
2022/01/14 10:27:40;;;;;;;5.27;4.27;;;;;;;4.80;73.50;98734.34;1676733;84;21579;-71
2022/01/14 10:30:29;;;;;;;3.33;2.30;;;;;;;4.85;73.34;98720.05;1670177;84;21015;-71
2022/01/14 10:33:00;;;;;;;4.40;2.73;;;;;;;4.88;73.22;98702.52;1672066;84;20989;-72
2022/01/14 10:35:31;;;;;;;3.13;2.93;;;;;;;4.94;73.37;98695.66;1698772;82;21068;-73
2022/01/14 10:38:05;;;;;;;3.03;2.77;;;;;;;4.99;73.24;98695.06;1695660;82;21043;-71
2022/01/14 10:40:39;;;;;;;2.90;2.70;;;;;;;4.99;73.24;98672.62;1702523;82;21297;-74
2022/01/14 10:43:07;;;;;;;2.33;1.83;;;;;;;5.00;73.28;98646.53;1647834;85;21063;-73
2022/01/14 10:45:35;;;;;;;2.67;2.47;;;;;;;5.02;73.24;98636.59;1654504;84;21079;-73
2022/01/14 10:48:13;;;;;;;2.10;1.77;;;;;;;5.02;73.38;98635.27;1663259;84;21640;-70
2022/01/14 10:50:47;;;;;;;1.70;1.60;;;;;;;5.04;73.50;98645.13;1671674;84;21108;-71
2022/01/14 10:53:18;;;;;;;2.87;2.20;;;;;;;4.95;73.75;98623.84;1681856;84;21088;-71
2022/01/14 10:55:50;;;;;;;2.03;1.87;;;;;;;4.97;73.75;98606.82;1669741;84;21536;-72
2022/01/14 10:58:33;;;;;;;2.37;2.17;;;;;;;4.98;73.92;98615.55;1676182;84;21015;-70
2022/01/14 11:01:13;;;;;;;2.13;1.87;;;;;;;4.97;74.08;98588.82;1683571;83;21018;-71
2022/01/14 11:03:56;;;;;;;2.47;2.27;;;;;;;4.97;74.23;98582.22;1706623;83;21019;-72
2022/01/14 11:06:34;;;;;;;5.13;2.10;;;;;;;4.99;74.17;98559.08;1712488;82;21653;-70
2022/01/14 11:09:10;;;;;;;1.30;1.13;;;;;;;5.02;74.22;98565.30;1707474;83;21509;-79
2022/01/14 11:11:42;;;;;;;1.37;1.23;;;;;;;4.99;74.19;98565.19;1702305;84;21887;-73
2022/01/14 11:14:10;;;;;;;1.97;1.70;;;;;;;4.91;74.37;98523.60;1703734;82;21944;-71
2022/01/14 11:16:38;;;;;;;3.63;1.37;;;;;;;4.86;74.51;98533.45;1702881;82;21097;-72
2022/01/14 11:19:09;;;;;;;2.40;1.27;;;;;;;4.91;74.52;98536.80;1698776;82;21513;-69
2022/01/14 11:24:34;;;;;;;3.70;1.33;;;;;;;4.97;74.37;98522.81;1700558;82;21081;-78
2022/01/14 11:27:05;;;;;;;2.67;1.77;;;;;;;4.96;74.28;98470.52;1702214;82;22224;-73
2022/01/14 11:29:36;;;;;;;1.60;1.27;;;;;;;4.98;74.34;98500.69;1700628;82;21022;-73
2022/01/14 11:32:05;;;;;;;3.50;3.20;;;;;;;4.99;74.29;98471.45;1705602;82;22210;-69
2022/01/14 11:34:40;;;;;;;15.03;9.93;;;;;;;5.03;74.16;98485.08;1708125;82;21065;-74
2022/01/14 11:37:10;;;;;;;13.77;8.00;;;;;;;5.02;74.20;98472.88;1704228;82;20964;-71
2022/01/14 11:41:57;;;;;;;9.87;5.53;;;;;;;5.05;74.12;98485.69;1787939;78;22220;-69
2022/01/14 11:44:47;;;;;;;3.23;2.30;;;;;;;5.04;73.99;98470.84;1736356;80;21021;-70
2022/01/14 11:47:29;;;;;;;1.40;1.23;;;;;;;5.05;74.07;98451.36;1655851;84;21141;-70
2022/01/14 11:49:58;;;;;;;4.63;2.83;;;;;;;5.05;74.12;98480.41;1677029;84;21033;-72
2022/01/14 11:52:38;;;;;;;15.53;7.50;;;;;;;5.05;74.10;98454.81;1678487;84;21025;-70
2022/01/14 11:55:25;;;;;;;4.87;3.10;;;;;;;5.07;74.13;98437.45;1631473;86;21656;-72
2022/01/14 11:57:55;;;;;;;4.35;1.95;;;;;;;5.07;74.26;98441.41;1609094;87;21132;-74
2022/01/14 12:00:39;;;;;;;2.93;1.87;;;;;;;5.07;74.30;98455.42;1627224;86;21125;-71
2022/01/14 12:03:14;;;;;;;1.70;1.07;;;;;;;5.06;74.34;98452.97;1620343;87;21115;-72
2022/01/14 12:06:03;;;;;;;2.00;1.30;;;;;;;5.04;74.48;98425.44;1619917;87;21081;-70
2022/01/14 12:08:37;;;;;;;4.97;3.67;;;;;;;5.02;74.64;98417.42;1643647;86;21125;-69
2022/01/14 12:11:11;;;;;;;6.73;4.20;;;;;;;5.02;74.78;98409.50;1626752;87;21078;-71
2022/01/14 12:13:54;;;;;;;3.23;2.17;;;;;;;5.05;74.78;98395.91;1640425;86;21064;-70
2022/01/14 12:19:03;;;;;;;2.08;1.87;;;;;;;5.03;75.10;98404.02;1646802;86;21387;-72
2022/01/14 12:21:51;;;;;;;3.70;2.33;;;;;;;5.05;75.17;98402.52;1626506;87;21094;-73
2022/01/14 12:24:30;;;;;;;5.67;4.40;;;;;;;5.05;75.40;98390.63;1608110;86;21055;-70
2022/01/14 12:27:11;;;;;;;8.77;6.63;;;;;;;5.04;75.55;98404.31;1611498;87;21008;-70
2022/01/14 12:29:45;;;;;;;5.22;3.65;;;;;;;5.06;75.63;98385.63;1610979;87;21524;-74